Time;durP1;ratioP1;P1;durP2;ratioP2;P2;SDS_P1;SDS_P2;PMS_P1;PMS_P2;Temp;Humidity;BMP_temperature;BMP_pressure;BME280_temperature;BME280_humidity;BME280_pressure;Samples;Min_cycle;Max_cycle;Signal;HPM_P1;HPM_P2
2022/07/10 00:01:24;;;;;;;3.60;0.30;;;;;;;11.34;51.64;102466.34;5013643;28;20400;-76
2022/07/10 00:03:50;;;;;;;4.25;0.80;;;;;;;11.25;51.77;102462.13;5017846;28;20412;-75
2022/07/10 00:06:16;;;;;;;1.38;0.40;;;;;;;11.29;51.71;102452.50;5029660;28;20069;-77
2022/07/10 00:08:42;;;;;;;5.18;0.43;;;;;;;11.38;51.74;102454.94;5013445;28;20051;-77
2022/07/10 00:11:09;;;;;;;5.78;1.10;;;;;;;11.74;51.21;102451.66;5035613;28;20072;-77
2022/07/10 00:13:35;;;;;;;6.32;0.40;;;;;;;11.93;51.20;102446.91;5015019;28;20029;-76
2022/07/10 00:16:01;;;;;;;10.70;0.90;;;;;;;11.24;52.13;102449.94;4996903;28;20045;-78
2022/07/10 00:18:30;;;;;;;4.82;0.75;;;;;;;11.61;51.68;102444.00;5020014;28;20029;-77
2022/07/10 00:20:55;;;;;;;10.80;0.75;;;;;;;11.76;51.42;102440.25;5029558;28;20042;-76
2022/07/10 00:23:21;;;;;;;4.35;0.40;;;;;;;11.68;51.06;102444.75;5014900;28;20033;-75
2022/07/10 00:25:46;;;;;;;2.75;0.63;;;;;;;11.76;50.97;102435.00;5032484;28;20492;-78
2022/07/10 00:28:12;;;;;;;6.03;0.20;;;;;;;11.94;50.33;102443.41;5015127;28;20072;-76
2022/07/10 00:30:38;;;;;;;5.13;0.60;;;;;;;11.95;50.12;102439.88;4996613;28;20113;-77
2022/07/10 00:33:04;;;;;;;6.70;0.30;;;;;;;11.78;50.49;102438.50;5017159;28;20481;-77
2022/07/10 00:35:30;;;;;;;14.63;0.80;;;;;;;11.64;50.57;102430.00;5012770;28;20038;-76
2022/07/10 00:37:55;;;;;;;3.50;0.52;;;;;;;12.10;49.93;102431.72;4996570;28;20119;-76
2022/07/10 00:40:21;;;;;;;4.82;0.30;;;;;;;12.18;49.47;102428.91;5032175;28;20430;-77
2022/07/10 00:42:47;;;;;;;5.90;0.45;;;;;;;11.90;49.51;102426.88;4995612;28;20950;-77
2022/07/10 00:45:13;;;;;;;1.23;0.25;;;;;;;12.13;48.96;102421.16;5017272;28;20036;-78
2022/07/10 00:47:38;;;;;;;3.30;0.30;;;;;;;12.14;48.74;102417.66;5016094;28;20045;-77
2022/07/10 00:50:06;;;;;;;6.82;0.30;;;;;;;12.02;48.87;102415.28;5001438;28;20045;-75
2022/07/10 00:52:38;;;;;;;4.05;0.20;;;;;;;12.03;48.47;102419.63;5018779;28;20033;-76
2022/07/10 00:55:05;;;;;;;3.00;0.30;;;;;;;11.85;48.29;102407.78;4996104;28;20457;-78
2022/07/10 00:57:31;;;;;;;4.82;0.40;;;;;;;11.81;48.18;102409.59;5004585;28;20539;-79
2022/07/10 00:59:58;;;;;;;9.18;0.45;;;;;;;12.24;47.16;102403.41;5012756;28;20069;-76
2022/07/10 01:02:23;;;;;;;7.82;0.57;;;;;;;12.17;47.65;102412.31;5028837;28;20025;-76
2022/07/10 01:04:49;;;;;;;8.35;0.40;;;;;;;12.01;47.74;102411.81;4996966;28;20407;-76
2022/07/10 01:07:15;;;;;;;11.90;1.10;;;;;;;11.97;47.42;102412.75;5017948;28;20114;-76
2022/07/10 01:09:42;;;;;;;3.83;0.30;;;;;;;11.99;47.51;102397.88;4998120;28;20587;-77
2022/07/10 01:12:10;;;;;;;5.13;0.38;;;;;;;11.92;47.03;102401.53;5001703;28;20056;-76
2022/07/10 01:14:37;;;;;;;6.47;0.90;;;;;;;11.59;47.41;102392.56;5011274;28;20996;-76
2022/07/10 01:17:05;;;;;;;8.40;0.45;;;;;;;11.59;47.79;102392.56;4998843;28;20022;-76
2022/07/10 01:19:30;;;;;;;4.85;0.20;;;;;;;11.66;47.41;102396.78;5009570;28;20088;-78
2022/07/10 01:21:56;;;;;;;4.80;0.40;;;;;;;11.51;47.67;102394.47;5031782;28;20458;-76
2022/07/10 01:24:21;;;;;;;3.17;0.22;;;;;;;11.66;47.42;102388.94;4993806;28;20037;-76
2022/07/10 01:26:47;;;;;;;6.05;0.50;;;;;;;11.61;47.10;102381.16;5001761;28;20112;-77
2022/07/10 01:29:13;;;;;;;5.38;0.20;;;;;;;11.56;47.26;102392.66;5013483;28;20045;-77
2022/07/10 01:31:41;;;;;;;4.43;0.30;;;;;;;11.77;46.78;102386.97;5017353;28;20048;-77
2022/07/10 01:34:11;;;;;;;7.85;1.30;;;;;;;11.83;46.42;102381.63;5014376;28;20706;-78
2022/07/10 01:36:37;;;;;;;7.35;0.80;;;;;;;11.92;46.63;102375.31;5035810;28;20085;-79
2022/07/10 01:39:04;;;;;;;7.70;1.35;;;;;;;11.99;46.42;102381.28;5015472;28;20029;-77
2022/07/10 01:41:29;;;;;;;10.75;0.52;;;;;;;12.07;46.25;102380.22;5019131;28;20037;-75
2022/07/10 01:43:55;;;;;;;2.33;0.60;;;;;;;11.62;46.41;102376.78;5009774;28;20037;-78
2022/07/10 01:46:21;;;;;;;5.05;0.38;;;;;;;11.46;47.59;102381.47;5001977;28;20052;-79
2022/07/10 01:48:47;;;;;;;5.70;0.30;;;;;;;11.68;47.92;102393.22;4999588;28;20230;-77
2022/07/10 01:51:13;;;;;;;3.40;0.63;;;;;;;11.74;49.12;102381.78;5013644;28;20161;-79
2022/07/10 01:53:39;;;;;;;3.97;0.52;;;;;;;11.73;49.65;102385.31;5026678;28;20403;-79
2022/07/10 01:56:07;;;;;;;5.22;1.00;;;;;;;11.51;50.41;102381.38;5015197;28;20386;-78
2022/07/10 01:58:34;;;;;;;13.50;1.55;;;;;;;11.23;51.24;102376.69;5000588;28;20037;-77
2022/07/10 02:01:00;;;;;;;6.88;0.40;;;;;;;11.69;50.03;102370.56;5009035;28;20129;-77
2022/07/10 02:06:11;;;;;;;5.88;0.22;;;;;;;11.64;50.33;102375.00;4998358;28;20124;-78
2022/07/10 02:08:37;;;;;;;5.72;1.23;;;;;;;11.56;50.97;102376.94;5019659;28;20129;-77
2022/07/10 02:11:02;;;;;;;8.38;0.60;;;;;;;11.64;51.26;102370.66;4999098;28;20045;-75
2022/07/10 02:13:28;;;;;;;6.43;0.40;;;;;;;11.56;51.31;102366.47;5029543;28;20075;-77
2022/07/10 02:15:54;;;;;;;8.90;0.50;;;;;;;11.76;51.28;102369.53;4995009;28;20506;-79
2022/07/10 02:18:20;;;;;;;5.63;0.77;;;;;;;11.63;51.69;102370.66;5035552;28;20033;-77
2022/07/10 02:20:46;;;;;;;1.45;0.30;;;;;;;11.66;51.78;102367.97;5015815;28;20302;-77
2022/07/10 02:23:12;;;;;;;6.00;0.40;;;;;;;11.77;51.52;102373.00;5011328;28;20087;-77
2022/07/10 02:25:38;;;;;;;7.68;0.93;;;;;;;11.77;51.34;102373.00;5008037;28;20111;-77
2022/07/10 02:28:04;;;;;;;7.80;0.40;;;;;;;11.73;51.31;102363.47;5032942;28;20079;-79
2022/07/10 02:30:29;;;;;;;8.27;0.30;;;;;;;11.81;50.88;102367.69;5016797;28;20391;-77
2022/07/10 02:32:55;;;;;;;7.00;0.65;;;;;;;11.69;50.91;102367.94;4997764;28;20042;-78
2022/07/10 02:35:21;;;;;;;5.78;0.30;;;;;;;11.59;50.66;102366.38;5017518;28;20041;-80
2022/07/10 02:37:46;;;;;;;2.90;0.30;;;;;;;11.70;50.12;102364.41;5004281;28;20037;-77
2022/07/10 02:40:12;;;;;;;1.10;0.10;;;;;;;11.92;49.27;102361.38;5004101;28;20535;-75
2022/07/10 02:42:37;;;;;;;5.05;0.40;;;;;;;11.74;49.62;102358.22;5035525;28;20072;-74
2022/07/10 02:45:03;;;;;;;1.65;0.75;;;;;;;11.64;49.52;102354.03;4971160;28;20107;-76
2022/07/10 02:47:29;;;;;;;5.18;0.40;;;;;;;11.63;49.69;102354.97;5014877;28;20063;-75
2022/07/10 02:49:54;;;;;;;3.13;0.30;;;;;;;11.37;50.10;102351.09;5018248;28;20157;-77
2022/07/10 02:52:20;;;;;;;3.25;0.10;;;;;;;11.69;49.27;102349.59;5018905;28;20091;-76
2022/07/10 02:54:45;;;;;;;3.67;0.30;;;;;;;11.26;50.03;102347.81;5017036;28;20041;-76
2022/07/10 02:57:11;;;;;;;4.82;0.65;;;;;;;11.63;48.99;102352.34;5018822;28;20033;-75
2022/07/10 02:59:36;;;;;;;5.85;0.75;;;;;;;11.65;48.96;102361.03;5036331;28;20037;-76
2022/07/10 03:02:02;;;;;;;1.65;0.13;;;;;;;11.59;48.69;102355.91;5018458;28;20123;-78
2022/07/10 03:04:28;;;;;;;1.58;0.10;;;;;;;11.60;48.76;102352.41;5013668;28;20060;-77
2022/07/10 03:06:53;;;;;;;4.72;0.40;;;;;;;11.58;48.55;102360.28;5013255;28;20446;-75
2022/07/10 03:09:19;;;;;;;2.28;0.15;;;;;;;11.66;48.10;102358.38;5021293;28;20518;-76
2022/07/10 03:11:44;;;;;;;11.65;0.38;;;;;;;11.65;48.13;102356.63;5015114;28;20045;-78
2022/07/10 03:14:10;;;;;;;5.55;1.05;;;;;;;11.64;48.18;102359.28;5018117;28;20049;-77
2022/07/10 03:16:36;;;;;;;4.65;0.52;;;;;;;11.54;48.52;102360.38;5016320;28;20033;-77
2022/07/10 03:19:02;;;;;;;4.82;1.20;;;;;;;11.61;48.33;102359.34;4999575;28;20029;-75
2022/07/10 03:21:27;;;;;;;4.03;0.40;;;;;;;11.71;48.46;102355.66;5014312;28;20025;-76
2022/07/10 03:23:53;;;;;;;6.93;0.93;;;;;;;11.90;47.96;102350.06;4994365;28;20042;-78
2022/07/10 03:26:18;;;;;;;12.35;0.95;;;;;;;11.96;48.00;102349.94;5016140;28;20120;-74
2022/07/10 03:28:44;;;;;;;7.22;0.68;;;;;;;11.81;48.73;102348.50;4996462;28;20029;-76
2022/07/10 03:31:09;;;;;;;9.27;0.50;;;;;;;12.03;48.27;102338.41;5013903;28;20042;-76
2022/07/10 03:33:35;;;;;;;8.20;0.45;;;;;;;11.68;49.08;102348.72;5011586;28;20033;-76
2022/07/10 03:36:01;;;;;;;13.60;0.60;;;;;;;11.50;49.77;102345.63;5012149;28;20046;-76
2022/07/10 03:38:27;;;;;;;9.38;0.47;;;;;;;11.72;48.84;102339.03;5006869;28;20424;-76
2022/07/10 03:40:53;;;;;;;11.57;1.20;;;;;;;11.95;48.71;102349.03;5029186;28;20045;-75
2022/07/10 03:43:18;;;;;;;11.18;1.00;;;;;;;12.05;48.29;102344.47;5002341;28;20029;-77
2022/07/10 03:45:44;;;;;;;10.15;0.82;;;;;;;11.94;48.19;102336.00;5018158;28;20067;-77
2022/07/10 03:48:09;;;;;;;8.00;0.70;;;;;;;12.22;47.65;102347.56;4999142;28;20076;-76
2022/07/10 03:50:35;;;;;;;4.93;1.30;;;;;;;11.96;47.88;102345.53;5012127;28;20404;-76
2022/07/10 03:53:00;;;;;;;7.05;0.43;;;;;;;12.20;47.42;102344.13;5015234;28;20495;-76
2022/07/10 03:55:26;;;;;;;8.48;0.55;;;;;;;11.96;47.42;102345.53;5012442;28;20037;-75
2022/07/10 03:57:54;;;;;;;11.65;0.95;;;;;;;11.90;47.45;102350.06;5029108;28;20156;-76
2022/07/10 04:00:34;;;;;;;9.98;1.10;;;;;;;12.19;46.87;102347.63;5001205;28;20204;-76
2022/07/10 04:03:02;;;;;;;8.95;0.75;;;;;;;12.18;46.99;102350.28;5028879;28;20040;-76
2022/07/10 04:05:29;;;;;;;3.22;0.40;;;;;;;12.52;46.27;102341.63;5017276;28;20435;-76
2022/07/10 04:07:56;;;;;;;13.82;0.70;;;;;;;12.44;46.33;102337.41;5015481;28;20132;-75
2022/07/10 04:10:23;;;;;;;12.48;1.45;;;;;;;12.41;46.88;102342.72;4983036;28;20430;-76
2022/07/10 04:12:49;;;;;;;7.00;0.40;;;;;;;12.56;46.50;102335.38;5026441;28;20041;-75
2022/07/10 04:15:15;;;;;;;9.43;0.65;;;;;;;12.51;47.08;102338.09;5017933;28;20122;-76
2022/07/10 04:17:41;;;;;;;14.52;0.90;;;;;;;12.39;47.60;102336.66;5030329;28;20492;-76
2022/07/10 04:20:08;;;;;;;4.00;0.40;;;;;;;12.20;48.13;102332.75;5033940;28;20095;-75
2022/07/10 04:22:33;;;;;;;2.75;0.55;;;;;;;12.32;47.98;102332.47;5016356;28;20192;-74
2022/07/10 04:24:59;;;;;;;6.80;0.40;;;;;;;12.56;47.43;102335.38;5010950;28;20573;-75
2022/07/10 04:27:24;;;;;;;7.53;0.40;;;;;;;12.72;47.00;102336.75;5019545;28;20047;-77
2022/07/10 04:29:50;;;;;;;6.45;0.30;;;;;;;12.34;48.20;102335.91;5015184;28;20042;-75
2022/07/10 04:32:16;;;;;;;3.15;0.20;;;;;;;12.18;49.09;102342.41;5003405;28;20029;-74
2022/07/10 04:34:42;;;;;;;5.60;0.50;;;;;;;12.22;49.35;102341.44;5029404;28;20116;-76
2022/07/10 04:37:08;;;;;;;9.40;0.60;;;;;;;12.01;50.64;102348.91;5019935;28;20187;-76
2022/07/10 04:39:37;;;;;;;6.82;0.75;;;;;;;12.03;51.30;102351.50;5027481;28;20041;-77
2022/07/10 04:42:04;;;;;;;4.93;0.50;;;;;;;11.82;51.83;102347.59;5000643;28;20030;-76
2022/07/10 04:44:30;;;;;;;9.50;0.98;;;;;;;11.70;52.64;102346.06;5026838;28;20044;-76
2022/07/10 04:46:55;;;;;;;8.07;1.55;;;;;;;11.94;52.54;102341.22;5017374;28;20030;-76
2022/07/10 04:49:21;;;;;;;11.63;1.05;;;;;;;11.82;52.64;102343.22;5017230;28;20522;-76
2022/07/10 04:51:46;;;;;;;7.63;0.60;;;;;;;12.12;52.29;102346.03;5010481;28;20036;-75
2022/07/10 04:54:12;;;;;;;12.93;0.52;;;;;;;11.95;52.22;102342.94;5015847;28;20037;-76
2022/07/10 04:56:38;;;;;;;7.30;1.30;;;;;;;12.33;51.80;102338.56;5011418;28;20037;-76
2022/07/10 04:59:03;;;;;;;10.15;1.55;;;;;;;12.33;50.80;102343.81;5000573;28;20043;-77
2022/07/10 05:01:29;;;;;;;8.77;0.60;;;;;;;12.46;50.11;102340.00;5016609;28;20437;-77
2022/07/10 05:03:54;;;;;;;9.43;0.98;;;;;;;12.67;49.04;102334.22;5009627;28;20101;-74
2022/07/10 05:06:20;;;;;;;6.82;0.50;;;;;;;13.40;46.92;102335.75;5034535;28;20025;-77
2022/07/10 05:08:45;;;;;;;6.95;0.65;;;;;;;13.48;45.80;102333.78;5019084;28;20131;-76
2022/07/10 05:11:11;;;;;;;10.20;0.95;;;;;;;13.10;45.94;102337.50;5011300;28;20537;-79
2022/07/10 05:13:37;;;;;;;5.32;0.57;;;;;;;13.21;46.16;102342.47;5016024;28;20033;-76
2022/07/10 05:16:04;;;;;;;4.65;0.35;;;;;;;12.48;46.98;102343.44;5012898;28;20510;-76
2022/07/10 05:18:30;;;;;;;4.30;0.68;;;;;;;12.96;46.18;102340.50;5013274;28;20153;-76
2022/07/10 05:20:55;;;;;;;5.38;0.55;;;;;;;12.25;45.88;102341.38;5000278;28;20132;-75
2022/07/10 05:23:21;;;;;;;10.07;0.47;;;;;;;13.16;44.37;102346.94;5032744;28;20018;-75
2022/07/10 05:25:46;;;;;;;1.85;0.30;;;;;;;14.52;40.99;102344.63;5032735;28;20036;-78
2022/07/10 05:28:14;;;;;;;4.80;0.45;;;;;;;14.45;40.94;102343.13;4995016;28;20064;-77
2022/07/10 05:30:41;;;;;;;7.57;0.40;;;;;;;14.02;42.08;102340.06;5010842;28;20396;-75
2022/07/10 05:33:07;;;;;;;3.10;0.50;;;;;;;13.23;44.52;102345.91;5014929;28;20059;-77
2022/07/10 05:35:32;;;;;;;5.00;0.30;;;;;;;12.87;45.71;102340.72;4997750;28;20037;-75
2022/07/10 05:37:58;;;;;;;6.13;0.38;;;;;;;12.88;45.97;102334.59;5011057;28;20038;-76
2022/07/10 05:40:23;;;;;;;5.22;0.63;;;;;;;12.72;46.53;102335.91;5014506;28;20041;-77
2022/07/10 05:42:49;;;;;;;6.05;0.75;;;;;;;12.92;46.33;102333.59;4995821;28;20447;-78
2022/07/10 05:45:15;;;;;;;9.68;0.70;;;;;;;12.95;46.10;102337.91;4982316;28;20804;-76
2022/07/10 05:47:40;;;;;;;6.85;0.70;;;;;;;12.81;46.46;102340.91;5009353;28;20032;-78
2022/07/10 05:50:06;;;;;;;15.15;1.52;;;;;;;12.85;46.21;102350.44;4995291;28;20856;-78
2022/07/10 05:52:31;;;;;;;12.60;0.88;;;;;;;12.84;45.46;102351.31;5019441;28;20071;-76
2022/07/10 05:54:57;;;;;;;10.57;1.42;;;;;;;12.84;45.38;102343.44;5007623;28;20054;-77
2022/07/10 05:57:24;;;;;;;6.63;1.17;;;;;;;12.62;46.13;102341.31;5031023;28;20314;-78
2022/07/10 05:59:50;;;;;;;5.43;1.30;;;;;;;13.16;44.67;102346.94;5016655;28;20331;-76
2022/07/10 06:02:16;;;;;;;9.65;0.60;;;;;;;13.63;43.23;102347.41;5016339;28;20586;-78
2022/07/10 06:04:42;;;;;;;14.43;0.50;;;;;;;14.85;41.15;102344.41;4998884;28;20061;-76
2022/07/10 06:07:08;;;;;;;10.15;0.95;;;;;;;16.79;36.57;102329.91;4999919;28;20511;-78
2022/07/10 06:09:34;;;;;;;10.93;0.40;;;;;;;15.77;36.64;102343.69;5014775;28;20037;-78
2022/07/10 06:12:00;;;;;;;10.43;0.70;;;;;;;15.06;38.61;102345.41;5001116;28;20029;-76
2022/07/10 06:14:25;;;;;;;4.28;0.63;;;;;;;14.43;40.19;102343.16;4995716;28;20041;-76
2022/07/10 06:16:51;;;;;;;8.27;0.40;;;;;;;14.01;41.57;102345.38;5015709;28;20044;-75
2022/07/10 06:19:18;;;;;;;8.27;1.08;;;;;;;14.38;41.29;102344.22;5015774;28;20042;-78
2022/07/10 06:21:44;;;;;;;5.75;0.75;;;;;;;15.09;39.91;102345.31;5017770;28;20256;-76
2022/07/10 06:24:10;;;;;;;8.70;0.50;;;;;;;15.53;39.08;102343.72;5015060;28;20741;-76
2022/07/10 06:26:35;;;;;;;6.07;0.65;;;;;;;15.28;39.76;102335.00;5014508;28;20116;-78
2022/07/10 06:29:01;;;;;;;7.47;1.05;;;;;;;14.29;40.95;102333.06;5013566;28;20045;-78
2022/07/10 06:31:27;;;;;;;12.40;0.75;;;;;;;14.55;40.75;102344.53;5011505;28;20487;-77
2022/07/10 06:33:52;;;;;;;6.90;0.93;;;;;;;14.99;39.82;102339.50;5013594;28;20037;-76
2022/07/10 06:36:18;;;;;;;8.40;0.47;;;;;;;14.65;40.46;102347.72;5017063;28;20030;-77
2022/07/10 06:38:43;;;;;;;10.02;0.70;;;;;;;14.09;41.80;102348.63;5007909;28;20145;-78
2022/07/10 06:41:09;;;;;;;7.63;0.65;;;;;;;13.78;43.38;102353.97;5011542;28;21316;-76
2022/07/10 06:43:34;;;;;;;5.10;0.20;;;;;;;13.62;44.00;102356.19;4996277;28;20095;-75
2022/07/10 06:46:01;;;;;;;8.90;0.70;;;;;;;13.75;44.02;102361.97;5026120;28;20065;-76
2022/07/10 06:48:27;;;;;;;4.72;0.20;;;;;;;13.47;44.92;102358.34;5012785;28;20286;-77
2022/07/10 06:50:53;;;;;;;5.47;0.52;;;;;;;13.85;43.96;102359.00;5008915;28;20038;-76
2022/07/10 06:53:23;;;;;;;14.45;0.73;;;;;;;13.94;43.25;102355.22;5030715;28;20036;-79
2022/07/10 06:55:50;;;;;;;11.10;1.02;;;;;;;14.48;42.42;102357.03;5009755;28;20050;-76
2022/07/10 06:58:16;;;;;;;7.70;0.77;;;;;;;16.59;38.74;102351.84;5016094;28;20223;-76
2022/07/10 07:00:42;;;;;;;3.78;0.50;;;;;;;17.90;34.35;102348.69;5000537;28;20041;-78
2022/07/10 07:03:07;;;;;;;5.43;0.38;;;;;;;18.59;33.15;102348.81;5016429;28;20554;-76
2022/07/10 07:05:33;;;;;;;2.55;0.30;;;;;;;17.47;33.95;102338.31;5012120;28;20041;-77
2022/07/10 07:07:58;;;;;;;4.68;0.40;;;;;;;17.10;34.78;102336.47;4997498;28;20044;-77
2022/07/10 07:10:24;;;;;;;9.52;0.50;;;;;;;17.55;34.07;102341.47;5012564;28;20049;-77
2022/07/10 07:12:50;;;;;;;12.82;0.28;;;;;;;17.58;34.21;102346.63;5010460;28;20044;-75
2022/07/10 07:15:16;;;;;;;6.10;0.55;;;;;;;17.78;33.92;102355.41;5016037;28;20137;-78
2022/07/10 07:18:07;;;;;;;2.78;0.28;;;;;;;16.69;34.42;102354.94;5018229;28;20464;-76
2022/07/10 07:23:19;;;;;;;5.03;0.75;;;;;;;15.83;36.24;102355.78;5014378;28;20038;-76
2022/07/10 07:25:48;;;;;;;6.38;0.50;;;;;;;15.86;36.69;102359.13;5034145;28;20138;-77
2022/07/10 07:28:15;;;;;;;10.40;0.88;;;;;;;15.83;37.85;102358.41;5019359;28;20033;-78
2022/07/10 07:30:44;;;;;;;4.05;0.40;;;;;;;15.34;38.47;102350.56;5017317;28;20052;-76
2022/07/10 07:33:10;;;;;;;7.38;0.93;;;;;;;14.90;38.88;102363.53;5019339;28;20034;-78
2022/07/10 07:35:35;;;;;;;3.75;0.40;;;;;;;15.25;38.92;102366.72;5018498;28;20038;-76
2022/07/10 07:38:02;;;;;;;7.55;0.40;;;;;;;15.35;38.98;102357.59;5011399;28;20056;-75
2022/07/10 07:40:28;;;;;;;5.93;0.40;;;;;;;15.37;38.68;102361.00;5016177;28;20042;-76
2022/07/10 07:42:55;;;;;;;11.93;0.60;;;;;;;15.15;39.21;102361.75;5019925;28;20040;-77
2022/07/10 07:45:22;;;;;;;6.80;0.90;;;;;;;15.08;39.79;102365.53;5033986;28;20037;-76
2022/07/10 07:47:51;;;;;;;1.95;0.40;;;;;;;15.20;39.28;102366.00;5017849;28;20033;-76
2022/07/10 07:50:19;;;;;;;13.05;0.63;;;;;;;14.39;40.75;102364.31;5016934;28;20037;-76
2022/07/10 07:52:46;;;;;;;6.88;0.30;;;;;;;15.11;40.05;102367.19;5020318;28;20680;-77
2022/07/10 07:55:14;;;;;;;6.43;0.55;;;;;;;14.95;40.23;102369.50;5018628;28;20041;-77
2022/07/10 07:57:41;;;;;;;8.15;0.63;;;;;;;16.30;37.88;102374.16;5006835;28;20041;-76
2022/07/10 08:00:08;;;;;;;5.38;0.50;;;;;;;18.01;34.65;102365.75;5020736;28;20041;-75
2022/07/10 08:02:40;;;;;;;4.05;0.47;;;;;;;19.20;32.37;102358.03;5001732;28;20440;-76
2022/07/10 08:05:07;;;;;;;2.05;0.20;;;;;;;19.67;30.85;102354.59;5021608;28;20215;-77
2022/07/10 08:07:53;;;;;;;9.43;0.50;;;;;;;20.76;28.93;102355.47;5020820;28;20038;-75
2022/07/10 08:10:22;;;;;;;1.80;0.57;;;;;;;22.18;25.19;102345.66;5009802;28;20050;-76
2022/07/10 08:12:48;;;;;;;3.85;0.30;;;;;;;21.85;25.95;102337.22;5006005;28;20056;-77
2022/07/10 08:15:19;;;;;;;5.40;0.30;;;;;;;20.92;27.40;102336.81;5012444;28;20065;-76
2022/07/10 08:17:55;;;;;;;4.43;0.57;;;;;;;19.17;29.68;102352.91;5000208;28;20749;-76
2022/07/10 08:20:21;;;;;;;4.78;0.52;;;;;;;17.83;32.43;102348.13;5018654;28;20598;-75
2022/07/10 08:22:48;;;;;;;3.00;0.50;;;;;;;16.65;34.25;102348.94;5016669;28;20059;-76
2022/07/10 08:25:14;;;;;;;4.28;0.35;;;;;;;16.02;36.60;102342.75;5034278;28;20096;-75
2022/07/10 08:27:40;;;;;;;5.75;0.30;;;;;;;15.23;38.00;102344.84;5028554;28;20108;-77
2022/07/10 08:30:11;;;;;;;6.93;0.75;;;;;;;15.57;37.77;102342.69;5017440;28;20045;-77
2022/07/10 08:32:38;;;;;;;5.07;0.32;;;;;;;15.26;38.51;102342.97;5018144;28;20539;-75
2022/07/10 08:35:04;;;;;;;3.92;0.60;;;;;;;15.18;39.30;102344.97;4993818;28;20045;-76
2022/07/10 08:37:30;;;;;;;4.40;0.85;;;;;;;15.43;39.70;102352.88;5021388;28;20026;-75
2022/07/10 08:39:55;;;;;;;5.28;0.57;;;;;;;14.70;40.84;102356.31;5006230;28;20045;-76
2022/07/10 08:42:22;;;;;;;3.70;0.38;;;;;;;14.98;41.04;102358.84;5008038;28;20164;-77
2022/07/10 08:44:48;;;;;;;3.55;0.40;;;;;;;15.00;41.09;102357.03;5008248;28;20056;-77
2022/07/10 08:47:14;;;;;;;8.80;0.50;;;;;;;14.95;41.50;102365.09;4996855;28;20053;-77
2022/07/10 08:49:46;;;;;;;17.70;1.13;;;;;;;14.66;42.28;102366.09;5014779;28;20099;-76
2022/07/10 08:52:33;;;;;;;1.92;0.45;;;;;;;14.92;42.00;102373.06;5014481;28;20036;-76
2022/07/10 08:54:58;;;;;;;9.13;0.80;;;;;;;14.55;43.82;102376.13;5010172;28;20049;-76
2022/07/10 08:57:26;;;;;;;9.70;1.58;;;;;;;13.88;46.55;102379.06;5010176;28;20048;-77
2022/07/10 08:59:51;;;;;;;4.75;1.10;;;;;;;14.18;46.37;102369.38;5008529;28;20527;-77
2022/07/10 09:02:17;;;;;;;12.07;1.60;;;;;;;14.47;46.33;102368.47;5030555;28;20037;-77
2022/07/10 09:04:42;;;;;;;6.75;1.00;;;;;;;14.51;45.78;102380.59;4983020;28;20052;-75
2022/07/10 09:07:08;;;;;;;13.82;1.83;;;;;;;14.10;47.21;102387.19;5017811;28;20781;-77
2022/07/10 09:09:54;;;;;;;10.73;1.40;;;;;;;14.55;46.52;102376.13;4994950;28;20041;-77
2022/07/10 09:12:24;;;;;;;8.65;1.33;;;;;;;14.67;45.92;102385.38;5015801;28;20029;-77
2022/07/10 09:14:51;;;;;;;11.43;0.63;;;;;;;14.60;46.10;102389.97;5015209;28;20088;-77
2022/07/10 09:17:17;;;;;;;3.63;0.40;;;;;;;14.74;44.72;102374.56;5011730;28;20343;-76
2022/07/10 09:19:43;;;;;;;4.82;1.33;;;;;;;14.74;44.59;102379.84;5022263;28;20040;-76
2022/07/10 09:22:10;;;;;;;3.35;0.45;;;;;;;14.65;44.41;102372.25;4992705;28;20037;-77
2022/07/10 09:24:41;;;;;;;7.75;0.73;;;;;;;15.35;42.63;102370.75;4998321;28;20410;-76
2022/07/10 09:27:07;;;;;;;6.10;0.50;;;;;;;15.51;42.67;102374.53;5009141;28;20079;-77
2022/07/10 09:29:46;;;;;;;5.25;0.50;;;;;;;15.47;42.40;102370.28;5014004;28;20118;-76
2022/07/10 09:32:12;;;;;;;6.72;1.00;;;;;;;15.54;42.43;102373.56;5013606;28;20039;-77
2022/07/10 09:34:39;;;;;;;6.00;0.70;;;;;;;15.56;42.77;102369.94;5006702;28;20041;-77
2022/07/10 09:37:29;;;;;;;12.13;0.80;;;;;;;15.75;42.47;102369.22;5018109;28;20076;-75
2022/07/10 09:39:58;;;;;;;8.02;0.40;;;;;;;16.19;42.22;102371.94;4967924;28;20546;-77
2022/07/10 09:42:43;;;;;;;10.23;0.93;;;;;;;16.05;42.10;102364.59;5023289;28;20080;-77
2022/07/10 09:45:12;;;;;;;4.32;0.80;;;;;;;16.60;40.09;102361.50;5015403;28;20176;-76
2022/07/10 09:47:38;;;;;;;5.70;0.55;;;;;;;16.82;40.73;102364.97;5012738;28;20062;-76
2022/07/10 09:50:18;;;;;;;2.85;0.60;;;;;;;16.58;39.07;102368.63;5016066;28;20052;-76
2022/07/10 09:52:46;;;;;;;8.80;1.17;;;;;;;16.57;38.08;102361.59;5018157;28;20092;-77
2022/07/10 09:55:13;;;;;;;3.60;0.52;;;;;;;16.00;39.06;102372.69;5014005;28;20037;-75
2022/07/10 09:57:43;;;;;;;2.78;0.32;;;;;;;15.85;39.39;102370.59;4998206;28;20049;-77
2022/07/10 10:00:10;;;;;;;6.35;0.47;;;;;;;15.90;40.38;102373.91;4993613;28;20750;-75
2022/07/10 10:02:39;;;;;;;5.93;0.40;;;;;;;15.13;41.54;102368.84;5016864;28;20056;-76
2022/07/10 10:05:05;;;;;;;5.85;0.50;;;;;;;14.84;43.02;102374.28;5012526;28;20515;-76
2022/07/10 10:07:33;;;;;;;8.55;0.35;;;;;;;15.12;43.19;102371.53;5012650;28;20025;-76
2022/07/10 10:10:01;;;;;;;7.78;0.45;;;;;;;15.50;42.17;102366.66;5007432;28;20203;-77
2022/07/10 10:12:35;;;;;;;6.45;0.43;;;;;;;14.63;45.23;102381.97;5015513;28;20160;-75
2022/07/10 10:15:02;;;;;;;4.72;0.70;;;;;;;14.54;46.92;102384.91;5014051;28;20137;-76
2022/07/10 10:17:28;;;;;;;7.53;0.35;;;;;;;14.21;47.92;102377.19;4997429;28;20496;-77
2022/07/10 10:22:45;;;;;;;4.15;0.73;;;;;;;14.34;48.05;102383.78;5013362;28;20068;-77
2022/07/10 10:25:13;;;;;;;6.53;0.43;;;;;;;14.48;48.04;102374.59;5016074;28;20050;-77
2022/07/10 10:27:40;;;;;;;7.38;0.68;;;;;;;14.17;47.94;102380.81;5016540;28;20033;-77
2022/07/10 10:30:06;;;;;;;7.53;1.08;;;;;;;13.96;49.49;102381.47;4978329;28;20053;-76
2022/07/10 10:32:32;;;;;;;4.13;0.57;;;;;;;12.76;52.62;102385.63;5017518;28;20041;-76
2022/07/10 10:34:59;;;;;;;4.15;0.57;;;;;;;14.03;49.76;102388.25;5013511;28;20045;-75
2022/07/10 10:37:36;;;;;;;3.58;0.52;;;;;;;14.34;48.19;102383.78;5003242;28;20026;-77
2022/07/10 10:40:03;;;;;;;3.83;0.20;;;;;;;14.51;47.49;102385.03;4996228;28;20119;-77
2022/07/10 10:42:39;;;;;;;2.97;0.10;;;;;;;14.26;46.87;102377.88;5014510;28;20067;-76
2022/07/10 10:45:35;;;;;;;1.50;0.10;;;;;;;15.00;46.35;102375.47;4993406;28;20038;-74
2022/07/10 10:48:08;;;;;;;0.70;0.10;;;;;;;14.94;45.35;102378.31;5015391;28;20025;-77
2022/07/10 10:50:48;;;;;;;5.28;0.25;;;;;;;15.20;44.72;102384.44;5029259;28;20112;-77
2022/07/10 10:53:41;;;;;;;2.17;0.10;;;;;;;14.76;46.34;102379.78;5033035;28;20036;-75
2022/07/10 10:56:10;;;;;;;1.85;0.10;;;;;;;15.16;45.78;102374.00;5014969;28;20108;-76
2022/07/10 10:58:37;;;;;;;3.28;0.20;;;;;;;15.73;44.67;102368.47;5023983;28;20037;-76
2022/07/10 11:01:27;;;;;;;4.03;0.70;;;;;;;16.74;41.69;102372.31;5015640;28;20045;-76
2022/07/10 11:04:05;;;;;;;5.63;0.20;;;;;;;17.57;39.28;102363.41;5000714;28;20091;-75
2022/07/10 11:06:41;;;;;;;5.18;0.10;;;;;;;18.26;40.16;102361.94;4998328;28;20029;-75
2022/07/10 11:09:25;;;;;;;1.02;0.00;;;;;;;17.65;38.30;102363.91;5035577;28;20499;-75
2022/07/10 11:12:08;;;;;;;1.23;0.10;;;;;;;16.36;40.21;102363.34;5004723;28;20611;-76
2022/07/10 11:14:36;;;;;;;2.03;0.10;;;;;;;15.17;43.81;102374.88;5036597;28;20033;-75
2022/07/10 11:17:02;;;;;;;3.45;0.22;;;;;;;14.95;45.33;102374.78;5007260;28;20026;-75
2022/07/10 11:19:29;;;;;;;2.58;0.10;;;;;;;14.55;47.46;102384.88;4992323;28;20052;-76
2022/07/10 11:22:17;;;;;;;2.67;0.13;;;;;;;14.70;48.59;102375.63;5015460;28;20041;-75
2022/07/10 11:25:01;;;;;;;3.65;0.20;;;;;;;14.75;49.43;102386.84;5016842;28;20045;-76
2022/07/10 11:27:33;;;;;;;3.15;0.20;;;;;;;14.66;49.40;102387.16;5019140;28;20468;-76
2022/07/10 11:29:59;;;;;;;1.30;0.10;;;;;;;14.09;51.25;102369.66;4995609;28;20042;-76
2022/07/10 11:32:26;;;;;;;3.63;1.02;;;;;;;14.47;50.54;102372.88;5034678;28;20045;-76
2022/07/10 11:34:52;;;;;;;6.43;0.10;;;;;;;14.61;49.66;102370.63;5015014;28;20095;-77